METAR Data
IDs: Format: Raw Decoded Include TAF

Data at: 0554 UTC 24 Sep 2018

KMXO 240535Z AUTO 12006KT 10SM CLR 14/11 A3007 RMK AO2
KMXO 240515Z AUTO 12007KT 9SM CLR 15/11 A3007 RMK AO2
KMXO 240455Z AUTO 12006KT 10SM CLR 14/10 A3007 RMK AO2
KMXO 240435Z AUTO 13006KT 10SM CLR 13/10 A3007 RMK AO2
KMXO 240415Z AUTO 14003KT 10SM CLR 11/10 A3006 RMK AO2
KMXO 240355Z AUTO 00000KT 10SM CLR 11/10 A3006 RMK AO2
KMXO 240335Z AUTO 00000KT 10SM CLR 11/10 A3006 RMK AO2
KMXO 240315Z AUTO 11003KT 10SM CLR 12/10 A3006 RMK AO2
KMXO 240255Z AUTO 12004KT 10SM CLR 12/11 A3006 RMK AO2
KMXO 240235Z AUTO 00000KT 10SM CLR 11/11 A3006 RMK AO2
KMXO 240215Z AUTO 00000KT 10SM CLR 12/11 A3005 RMK AO2
KMXO 240155Z AUTO 00000KT 10SM CLR 13/11 A3005 RMK AO2
KMXO 240135Z AUTO 00000KT 10SM CLR 13/11 A3005 RMK AO2
KMXO 240115Z AUTO 00000KT 10SM CLR 14/10 A3005 RMK AO2
KMXO 240055Z AUTO 12004KT 10SM CLR 15/10 A3004 RMK AO2
KMXO 240035Z AUTO 09004KT 10SM CLR 17/10 A3004 RMK AO2
KMXO 240015Z AUTO 12005KT 10SM CLR 17/10 A3004 RMK AO2
KMXO 232355Z AUTO 12005KT 10SM CLR 19/09 A3004 RMK AO2
KMXO 232335Z AUTO 13005KT 10SM CLR 21/08 A3004 RMK AO2
KMXO 232315Z AUTO 13005KT 10SM CLR 22/08 A3004 RMK AO2
KMXO 232255Z AUTO 14007G12KT 10SM CLR 23/07 A3004 RMK AO2
KMXO 232235Z AUTO 15008KT 10SM CLR 24/08 A3004 RMK AO2
KMXO 232215Z AUTO 14005KT 10SM CLR 24/08 A3004 RMK AO2
KMXO 232155Z AUTO 14005G13KT 10SM CLR 24/07 A3004 RMK AO2
KMXO 232135Z AUTO 14006G12KT 10SM CLR 24/08 A3005 RMK AO2
KMXO 232115Z AUTO 13009G15KT CLR 24/07 A3005 RMK AO2
KMXO 232055Z AUTO 14007G14KT 10SM CLR 24/07 A3005 RMK AO2
KMXO 232035Z AUTO 14007G17KT 10SM CLR 24/08 A3005 RMK AO2
KMXO 232015Z AUTO 12007G13KT 10SM CLR 24/08 A3006 RMK AO2
KMXO 231955Z AUTO 14009KT 100V170 10SM CLR 24/08 A3007 RMK AO2
KMXO 231935Z AUTO 15007KT 120V180 10SM CLR 24/09 A3007 RMK AO2
KMXO 231915Z AUTO VRB06G11KT 10SM CLR 24/09 A3008 RMK AO2
KMXO 231855Z AUTO 14007G13KT 110V170 10SM CLR 23/09 A3009 RMK AO2
KMXO 231835Z AUTO 13007G14KT 080V170 10SM CLR 23/09 A3010 RMK AO2
KMXO 231815Z AUTO 14007G12KT 090V180 10SM CLR 23/10 A3011 RMK AO2
KMXO 231755Z AUTO VRB05G11KT 10SM CLR 22/10 A3012 RMK AO2
KMXO 231735Z AUTO VRB05G12KT 10SM CLR 21/10 A3013 RMK AO2
KMXO 231715Z AUTO 11008KT 10SM CLR 22/10 A3014 RMK AO2
KMXO 231655Z AUTO 16007G12KT 10SM CLR 21/10 A3014 RMK AO2
KMXO 231635Z AUTO 11008KT 10SM CLR 20/10 A3015 RMK AO2
KMXO 231615Z AUTO VRB04KT 10SM CLR 20/10 A3015 RMK AO2
KMXO 231555Z AUTO VRB05KT 10SM CLR 19/11 A3016 RMK AO2
KMXO 231535Z AUTO 19006KT 10SM CLR 19/11 A3017 RMK AO2
KMXO 231515Z AUTO 17006KT 10SM CLR 18/12 A3017 RMK AO2
KMXO 231455Z AUTO 18006KT 10SM CLR 17/12 A3017 RMK AO2
KMXO 231435Z AUTO 15006KT 10SM CLR 15/12 A3017 RMK AO2
KMXO 231415Z AUTO VRB05KT 10SM CLR 13/12 A3017 RMK AO2
KMXO 231355Z AUTO 14005KT 10SM CLR 12/11 A3016 RMK AO2
KMXO 231335Z AUTO 00000KT 10SM CLR 12/10 A3016 RMK AO2
KMXO 231315Z AUTO VRB04KT 10SM CLR 11/10 A3016 RMK AO2
KMXO 231255Z AUTO 00000KT 10SM CLR 09/09 A3015 RMK AO2
KMXO 231235Z AUTO 00000KT 10SM CLR 08/08 A3015 RMK AO2
KMXO 231215Z AUTO 00000KT 10SM CLR 07/07 A3015 RMK AO2
KMXO 231155Z AUTO 00000KT 10SM CLR 07/07 A3015 RMK AO2
KMXO 231135Z AUTO 00000KT 10SM CLR 07/07 A3015 RMK AO2
KMXO 231115Z AUTO 00000KT 8SM CLR 07/07 A3014 RMK AO2
KMXO 231055Z AUTO 00000KT 7SM CLR 07/07 A3014 RMK AO2
KMXO 231035Z AUTO 00000KT 8SM CLR 07/07 A3014 RMK AO2
KMXO 231015Z AUTO 00000KT 9SM CLR 07/07 A3014 RMK AO2
KMXO 230955Z AUTO 00000KT 10SM CLR 07/07 A3014 RMK AO2
KMXO 230935Z AUTO 00000KT 10SM CLR 07/07 A3013 RMK AO2
KMXO 230915Z AUTO 00000KT 10SM CLR 08/08 A3014 RMK AO2
KMXO 230855Z AUTO 00000KT 10SM CLR 08/08 A3014 RMK AO2
KMXO 230835Z AUTO 00000KT 10SM CLR 09/09 A3013 RMK AO2
KMXO 230815Z AUTO 00000KT 10SM CLR 08/08 A3014 RMK AO2
KMXO 230755Z AUTO 00000KT 10SM CLR 08/08 A3014 RMK AO2
KMXO 230735Z AUTO 00000KT 10SM CLR 08/08 A3014 RMK AO2
KMXO 230715Z AUTO 00000KT 10SM CLR 08/08 A3014 RMK AO2
KMXO 230655Z AUTO 00000KT 10SM CLR 08/08 A3014 RMK AO2
KMXO 230635Z AUTO 00000KT 10SM CLR 09/09 A3013 RMK AO2
KMXO 230615Z AUTO 00000KT 10SM CLR 08/08 A3014 RMK AO2
KMXO 230555Z AUTO 00000KT 10SM CLR 09/09 A3014 RMK AO2
KMXO 230535Z AUTO 00000KT 10SM CLR 09/09 A3015 RMK AO2
KMXO 230515Z AUTO 00000KT 10SM CLR 09/09 A3015 RMK AO2
KMXO 230455Z AUTO 00000KT 9SM CLR 09/09 A3015 RMK AO2
KMXO 230435Z AUTO 00000KT 7SM CLR 09/09 A3015 RMK AO2
KMXO 230415Z AUTO 00000KT 10SM CLR 10/10 A3015 RMK AO2
KMXO 230355Z AUTO 00000KT 10SM CLR 10/10 A3016 RMK AO2
KMXO 230335Z AUTO 00000KT 10SM CLR 10/10 A3016 RMK AO2
KMXO 230315Z AUTO 00000KT 10SM CLR 11/10 A3016 RMK AO2
KMXO 230255Z AUTO 00000KT 10SM CLR 11/10 A3016 RMK AO2
KMXO 230235Z AUTO 00000KT 10SM CLR 11/10 A3016 RMK AO2
KMXO 230215Z AUTO 00000KT 10SM CLR 11/11 A3015 RMK AO2
KMXO 230155Z AUTO 00000KT 10SM CLR 11/11 A3015 RMK AO2
KMXO 230135Z AUTO 13003KT 10SM CLR 12/11 A3015 RMK AO2
KMXO 230115Z AUTO 11004KT 10SM CLR 13/11 A3015 RMK AO2
KMXO 230055Z AUTO 11003KT 10SM CLR 14/11 A3015 RMK AO2
KMXO 230035Z AUTO 12004KT 10SM CLR 15/11 A3015 RMK AO2
KMXO 230015Z AUTO 16003KT 9SM CLR 15/11 A3015 RMK AO2
KMXO 222355Z AUTO 10004KT 10SM CLR 17/11 A3015 RMK AO2
KMXO 222335Z AUTO 10004KT 10SM CLR 18/10 A3015 RMK AO2
KMXO 222315Z AUTO 13004KT 10SM CLR 20/09 A3016 RMK AO2
KMXO 222255Z AUTO 09006KT 10SM CLR 20/09 A3016 RMK AO2
KMXO 222235Z AUTO 09006KT 10SM CLR 20/08 A3017 RMK AO2
KMXO 222215Z AUTO 00000KT 10SM CLR 20/08 A3017 RMK AO2
KMXO 222155Z AUTO VRB06KT 10SM CLR 21/08 A3018 RMK AO2
KMXO 222135Z AUTO VRB04KT 10SM CLR 20/08 A3018 RMK AO2
KMXO 222115Z AUTO VRB04KT 10SM CLR 21/08 A3019 RMK AO2
KMXO 222055Z AUTO VRB05KT 10SM CLR 20/08 A3019 RMK AO2
KMXO 222035Z AUTO VRB04KT 10SM CLR 20/07 A3020 RMK AO2
KMXO 222015Z AUTO 18006KT 10SM CLR 20/07 A3020 RMK AO2
KMXO 221955Z AUTO 12008KT 080V140 10SM CLR 20/08 A3021 RMK AO2
KMXO 221935Z AUTO 16008KT 10SM CLR 20/08 A3022 RMK AO2
KMXO 221915Z AUTO VRB05G11KT 10SM CLR 20/08 A3023 RMK AO2
KMXO 221855Z AUTO 19007KT 160V240 10SM CLR 19/08 A3024 RMK AO2
KMXO 221835Z AUTO VRB04G11KT 10SM CLR 19/08 A3025 RMK AO2
KMXO 221815Z AUTO 15006KT 10SM CLR 19/08 A3027 RMK AO2
KMXO 221755Z AUTO 15007KT 120V190 10SM SCT039 19/08 A3027 RMK AO2